Main page
METAR-TAF:

METAR-TAF

Airports :

Leipzig–Altenburg Airport

Altenburg, Germany

latitude: 50-58N, longitude: 012-30E, elevation: 195 m

Current weather observation

The report was made 20 minutes ago, at 21:20 UTC
Wind 2 kt from the Southeast
Temperature 7°C
Humidity 81%
Pressure 1025 hPa
Visibility 10 km or more

METAR: EDAC 092120Z AUTO 14002KT 9999 // SCT065/// 07/04 Q1025

Time: 23:40 (21:40 UTC)

Forecast

The report was made 7 hours and 40 minutes ago, at 14:00 UTC
Forecast valid from 09 at 15 UTC to 09 at 24 UTC
Wind 7 kt from the North/Northwest
Visibility 10 km or more
no clouds below 1500 m and no cumulonimbus
Becoming
from 09 at 18 UTC to 09 at 20 UTC
Wind 2 kt from variable directions

TAF: EDAC 091400Z 0915/0924 34007KT CAVOK BECMG 0918/0920 VRB02KT

Weather observations and forecasts of more than 4000 airports (METAR and TAF reports).

The available stations are represented by yellow and red dots on the map.

Hover mouse over dot to see the name of the station.

Then click to see weather observations and forecasts.

To change the map : click on the green buttons with a black cross to zoom in, on the green button with a dash to zoom out, or on the green arrows for adjacent maps.


METAR-TAF: